Aviation Digital Data Service (ADDS)

Output produced by METARs form (2348 UTC 03 June 2015)
found at http://aviationweather.gov/adds/metars/
 
KAGC 032320Z 0400/0424 08007KT P6SM BKN035 
     FM040700 12006KT P6SM BKN025 
     FM041700 13007KT P6SM BKN035